Hlavní strana
METAR-TAF:

METAR-TAF

Letiště :

Roskilde, Dánsko

zeměpisná šířka: 55-35N, zeměpisná délka: 012-08E, výška: 44 m

Aktuální stav počasí

Zpráva byla vytvořena před 23 minutami, v 08:20 UTC
Východní vítr 9 kt
Teplota 16°C
Vlhkost vzduchu 68%
Tlak 1010 hPa
Viditelnost 10 km a více

METAR: EKRK 260820Z AUTO 09009KT 9999NDV FEW180/// 16/10 Q1010

Čas: 10:43 (08:43 UTC)

Předpověď počasí

Zpráva byla vytvořena před 21 minutami, v 08:22 UTC
Předpověď platná od 26 v 09 UTC do 26 v 18 UTC
Východojihovýchodní vítr 10 kt
Viditelnost 10 km a více
Skoro jasno ve výšce 3000 ft
Dočasný
od 26 v 12 UTC do 26 v 18 UTC
Polojasno ve výšce 3000 ft, Cumulonimbus.
dešťové přeháňky

TAF: EKRK 260822Z 2609/2618 11010KT 9999 FEW030 TEMPO 2612/2618 SHRA SCT030CB

Stav a předpovědi počasí z více než 4 000 letišť (zprávy METAR a TAF).

Červené a žluté tečky na mapě představují dostupné meteorologické stanice.

Když kurzor umístíte na tečku, zobrazí se název stanice.

Pak kliknutím zobrazíte stav a předpověď počasí.

Chcete-li změnit mapu, kliknutím na zelené tlačítko se znaménkem +mapu přiblížíte, kliknutím na zelené tlačítko se znaménkem – mapu oddálíte a kliknutím na zelené šipky přejdete na sousední mapy.


METAR-TAF: